Latest Weather Observations for Bridgetown

IDW60801

Issued at 6:04 pm WST Saturday 1 October 2016 (issued every 30 minutes, with the page automatically refreshed every 10 minutes)

About weather observations | Map of weather stations | Latest weather observations for WA | Other Formats
Station Details ID: 009617 Name: BRIDGETOWN Lat: -33.95 Lon: 116.13 Height: 178.66 m
Data from the previous 72 hours. | See also: Recent months at Bridgetown
Date/Time
WST
Temp
°C
App
Temp
°C
Dew
Point
°C
Rel
Hum
%
Delta-T
°C
Wind Press
QNH
hPa
Press
MSL
hPa
Rain since
9am
mm
Dir  Spd
km/h
Gust
km/h
Spd
kts
Gust
kts
01/06:00pm 7.1 4.3 3.3 77 1.6 WNW 7 13 4 7 1004.2 1004.0 7.4
01/05:30pm 7.3 3.8 3.5 77 1.6 W 11 26 6 14 1004.1 1003.9 7.4
01/05:00pm 8.4 6.0 5.3 81 1.4 WNW 7 17 4 9 1002.9 1002.8 6.6
01/04:30pm 7.8 5.1 5.4 85 1.1 NNW 9 19 5 10 1002.9 1002.8 6.6
01/04:00pm 7.1 2.9 3.7 79 1.5 W 15 43 8 23 1003.6 1003.4 6.2
01/03:30pm 6.7 2.9 4.0 83 1.2 SW 13 43 7 23 1002.5 1002.4 5.6
01/03:18pm 9.4 4.5 4.0 69 2.4 W 19 54 10 29 1002.6 1002.5 4.4
01/03:00pm 11.4 6.7 3.2 57 3.7 W 17 37 9 20 1001.1 1001.0 4.0
01/02:30pm 8.6 5.2 4.2 74 1.9 WNW 11 24 6 13 1001.8 1001.7 4.0
01/02:16pm 8.4 2.8 3.3 70 2.2 W 22 56 12 30 1002.6 1002.5 3.8
01/02:00pm 11.3 6.9 4.7 64 3.0 W 17 33 9 18 1001.0 1000.9 3.6
01/01:30pm 9.3 5.7 4.9 74 2.0 WSW 13 26 7 14 1001.4 1001.3 3.6
01/01:00pm 8.9 3.8 4.3 73 2.1 SW 20 43 11 23 1001.2 1001.1 3.6
01/12:30pm 10.7 6.7 6.6 76 1.9 W 17 33 9 18 1000.5 1000.3 3.4
01/12:00pm 6.8 2.3 4.1 83 1.2 WSW 17 37 9 20 1001.4 1001.3 3.4
01/11:30am 9.9 6.3 4.9 71 2.3 W 13 30 7 16 1000.7 1000.5 2.4
01/11:18am 9.2 4.1 4.2 71 2.2 W 20 48 11 26 1001.1 1001.0 2.4
01/11:00am 10.3 7.3 6.1 75 2.0 WNW 11 24 6 13 1000.0 999.8 1.6
01/10:30am 8.5 4.2 5.4 81 1.4 WSW 17 39 9 21 1000.7 1000.5 1.4
01/10:00am 10.8 7.1 4.7 66 2.8 WNW 13 24 7 13 999.6 999.4 1.0
01/09:30am 8.6 4.3 5.4 80 1.5 W 17 33 9 18 999.8 999.6 1.0
01/09:00am 11.0 7.0 5.1 67 2.7 WNW 15 30 8 16 998.9 998.7 7.0
01/08:30am 8.9 5.4 5.6 80 1.5 W 13 22 7 12 999.3 999.1 7.0
01/08:00am 9.6 6.0 4.8 72 2.2 NW 13 26 7 14 998.5 998.3 6.6
01/07:30am 8.3 4.6 4.7 78 1.6 WNW 13 35 7 19 998.5 998.4 6.6
01/07:00am 9.4 5.3 4.4 71 2.3 WNW 15 33 8 18 998.0 997.9 6.4
01/06:30am 9.6 6.5 5.6 76 1.8 WNW 11 24 6 13 997.4 997.3 6.2
01/06:00am 9.2 6.0 6.8 85 1.1 NW 13 32 7 17 996.6 996.6 6.2
01/05:30am 9.6 4.8 7.4 86 1.1 WNW 22 44 12 24 996.6 996.6 6.0
01/05:14am 10.3 5.3 7.9 85 1.2 WNW 24 56 13 30 996.1 996.1 5.4
01/05:00am 12.2 7.8 9.0 81 1.6 NW 22 44 12 24 994.6 994.6 2.6
01/04:30am 11.6 7.8 9.0 84 1.3 NNW 19 37 10 20 995.1 995.1 2.6
01/04:00am 11.9 8.4 8.7 81 1.6 NW 17 33 9 18 996.1 996.1 2.4
01/03:30am 12.5 8.6 8.6 77 2.0 NW 19 41 10 22 996.6 996.6 2.2
01/03:00am 11.9 8.3 8.4 79 1.8 NNW 17 26 9 14 997.0 997.0 2.2
01/02:30am 12.0 9.6 8.5 79 1.7 NNW 11 20 6 11 998.1 998.0 2.2
01/02:00am 11.8 9.9 9.0 83 1.4 NNW 9 17 5 9 998.9 998.8 2.2
01/01:30am 11.6 9.6 8.8 83 1.4 NNW 9 20 5 11 999.5 999.5 2.2
01/01:00am 11.3 9.4 8.9 85 1.2 NNW 9 17 5 9 1000.3 1000.3 2.2
01/12:30am 11.1 9.2 9.0 87 1.1 NNW 9 19 5 10 1000.7 1000.7 2.2
01/12:00am 11.1 8.7 8.8 86 1.2 NNW 11 20 6 11 1001.2 1001.2 2.2
 
Date/Time
WST
Temp
°C
App
Temp
°C
Dew
Point
°C
Rel
Hum
%
Delta-T
°C
Wind Press
QNH
hPa
Press
MSL
hPa
Rain since
9am
mm
Dir  Spd
km/h
Gust
km/h
Spd
kts
Gust
kts
30/11:30pm 10.7 9.0 8.5 86 1.1 NNW 7 13 4 7 1001.7 1001.7 2.2
30/11:00pm 10.1 8.4 7.5 84 1.3 NNW 6 7 3 4 1002.2 1002.2 2.2
30/10:30pm 10.8 9.2 8.2 84 1.3 NW 6 7 3 4 1002.9 1002.9 2.2
30/10:00pm 11.0 9.4 8.1 82 1.4 NW 6 15 3 8 1003.2 1003.1 2.2
30/09:30pm 11.7 10.2 8.6 81 1.5 NW 6 11 3 6 1003.6 1003.5 2.2
30/09:00pm 12.0 10.3 8.5 79 1.8 WNW 7 17 4 9 1003.9 1003.9 2.2
30/08:30pm 12.1 10.6 8.4 78 1.8 NW 6 13 3 7 1003.7 1003.7 2.2
30/08:00pm 12.5 10.8 8.2 75 2.2 NW 7 17 4 9 1003.8 1003.8 2.2
30/07:30pm 12.5 10.4 8.2 75 2.1 NW 9 19 5 10 1003.4 1003.3 2.2
30/07:00pm 12.7 10.6 8.2 74 2.3 WNW 9 24 5 13 1003.4 1003.3 2.2
30/06:30pm 12.9 10.7 8.0 72 2.4 WNW 9 20 5 11 1003.6 1003.5 2.2
30/06:00pm 13.4 10.8 7.8 69 2.8 WNW 11 24 6 13 1003.6 1003.5 2.2
30/05:30pm 13.7 11.9 8.1 69 2.8 WNW 7 17 4 9 1003.4 1003.3 2.2
30/05:00pm 14.1 12.1 8.7 70 2.8 WNW 9 20 5 11 1003.3 1003.2 2.2
30/04:30pm 14.8 12.8 10.0 73 2.5 WNW 11 24 6 13 1003.3 1003.2 2.2
30/04:00pm 13.9 11.2 10.3 79 1.9 WNW 15 30 8 16 1003.3 1003.2 2.2
30/03:30pm 13.3 12.0 11.2 87 1.1 WNW 9 20 5 11 1003.4 1003.3 1.8
30/03:00pm 13.3 12.0 11.2 87 1.1 WNW 9 20 5 11 1003.3 1003.2 0.8
30/02:30pm 13.8 11.3 11.1 84 1.4 NW 15 32 8 17 1003.3 1003.2 0.6
30/02:00pm 15.7 12.5 9.8 68 3.1 NW 17 39 9 21 1002.9 1002.9 0.6
30/01:30pm 15.0 12.6 10.0 72 2.6 WNW 13 32 7 17 1003.3 1003.2 0.6
30/01:00pm 14.9 11.5 9.3 69 2.9 WNW 17 37 9 20 1003.5 1003.4 0.6
30/12:30pm 14.6 12.5 9.8 73 2.5 NW 11 24 6 13 1003.8 1003.8 0.6
30/12:00pm 13.8 10.9 11.0 83 1.5 WNW 17 32 9 17 1003.9 1003.9 0.6
30/11:30am 13.7 11.6 9.6 76 2.1 WNW 11 30 6 16 1004.2 1004.2 0.0
30/11:00am 15.3 11.9 9.0 66 3.3 WNW 17 32 9 17 1003.9 1003.9 0.0
30/10:30am 14.9 11.7 10.1 73 2.5 NW 17 28 9 15 1004.3 1004.3 0.0
30/10:00am 14.6 12.0 10.6 77 2.1 NW 15 28 8 15 1004.3 1004.3 0.0
30/09:30am 13.3 10.9 9.9 80 1.8 WNW 13 28 7 15 1004.8 1004.8 0.0
30/09:00am 12.3 10.0 10.4 88 1.0 NW 13 30 7 16 1005.0 1005.0 3.4
30/08:30am 11.5 10.6 10.6 94 0.5 WNW 6 9 3 5 1005.1 1005.1 2.0
30/08:00am 11.4 9.7 9.8 90 0.8 NNW 9 17 5 9 1004.8 1004.8 0.2
30/07:30am 11.6 8.6 9.3 86 1.2 NNW 15 24 8 13 1004.7 1004.7 0.0
30/07:00am 11.6 8.7 8.3 80 1.6 NNW 13 28 7 15 1004.9 1004.9 0.0
30/06:30am 10.3 8.4 7.5 83 1.4 NNW 7 13 4 7 1005.3 1005.3 0.0
30/06:00am 8.6 7.0 6.4 86 1.0 NW 4 4 2 2 1005.5 1005.5 0.0
30/05:30am 8.2 6.1 6.0 86 1.0 NNW 6 7 3 4 1005.7 1005.7 0.0
30/05:00am 7.8 5.7 5.8 87 0.9 NNW 6 9 3 5 1005.9 1005.9 0.0
30/04:30am 7.9 5.9 6.2 89 0.8 NNW 6 9 3 5 1006.3 1006.3 0.0
30/04:00am 7.9 5.9 6.4 90 0.7 NW 6 7 3 4 1007.1 1007.1 0.0
30/03:30am 8.1 6.3 7.3 95 0.4 NW 6 7 3 4 1007.6 1007.6 0.0
30/03:00am 6.9 5.3 6.5 97 0.2 NNW 4 6 2 3 1008.2 1008.2 0.0
30/02:30am 5.3 3.4 4.7 96 0.3 NW 4 6 2 3 1008.8 1008.9 0.0
30/02:00am 4.9 3.6 4.3 96 0.3 CALM 0 0 0 0 1008.8 1008.9 0.0
30/01:30am 5.0 3.7 4.3 95 0.3 CALM 0 0 0 0 1009.4 1009.4 0.0
30/01:00am 5.5 4.3 4.6 94 0.4 CALM 0 0 0 0 1009.9 1009.9 0.0
30/12:30am 6.3 5.3 5.4 94 0.4 CALM 0 0 0 0 1010.1 1010.1 0.0
30/12:00am 7.5 6.7 6.4 93 0.5 CALM 0 0 0 0 1010.4 1010.4 0.0
 
Date/Time
WST
Temp
°C
App
Temp
°C
Dew
Point
°C
Rel
Hum
%
Delta-T
°C
Wind Press
QNH
hPa
Press
MSL
hPa
Rain since
9am
mm
Dir  Spd
km/h
Gust
km/h
Spd
kts
Gust
kts
29/11:30pm 8.2 7.5 7.0 92 0.6 CALM 0 0 0 0 1011.2 1011.2 0.0
29/11:00pm 7.5 6.7 6.6 94 0.4 CALM 0 0 0 0 1011.8 1011.8 0.0
29/10:30pm 6.7 5.8 6.0 95 0.3 CALM 0 2 0 1 1012.4 1012.4 0.0
29/10:00pm 5.7 4.5 4.8 94 0.4 CALM 0 0 0 0 1013.0 1013.0 0.0
29/09:30pm 5.8 4.6 4.8 93 0.4 CALM 0 0 0 0 1013.4 1013.5 0.0
29/09:00pm 6.2 5.0 4.8 91 0.6 CALM 0 2 0 1 1013.6 1013.7 0.0
29/08:30pm 6.8 5.3 5.1 89 0.8 NNW 2 4 1 2 1013.9 1014.0 0.0
29/08:00pm 7.3 5.9 5.4 88 0.9 NNW 2 6 1 3 1014.2 1014.3 0.0
29/07:30pm 8.1 6.7 5.4 83 1.2 NE 2 4 1 2 1014.2 1014.3 0.0
29/07:00pm 9.4 8.0 5.6 77 1.7 NNW 2 4 1 2 1014.4 1014.5 0.0
29/06:30pm 11.0 9.2 5.5 69 2.6 NW 4 6 2 3 1014.4 1014.5 0.0
29/06:00pm 12.6 10.4 5.5 62 3.3 WNW 6 7 3 4 1014.4 1014.5 0.0
29/05:30pm 13.6 11.3 5.5 58 3.8 WNW 7 13 4 7 1014.2 1014.3 0.0
29/05:00pm 15.0 12.2 5.2 52 4.7 NW 9 17 5 9 1014.1 1014.2 0.0
29/04:30pm 15.7 13.1 5.9 52 4.8 NW 9 17 5 9 1014.3 1014.4 0.0
29/04:00pm 15.6 12.4 4.9 49 5.1 NW 11 19 6 10 1014.3 1014.4 0.0
29/03:30pm 15.8 12.7 5.4 50 5.0 NNW 11 19 6 10 1014.8 1014.8 0.0
29/03:00pm 15.9 12.7 4.9 48 5.2 NW 11 17 6 9 1015.1 1015.1 0.0
29/02:30pm 15.9 12.8 5.5 50 5.0 NNW 11 20 6 11 1015.8 1015.8 0.0
29/02:00pm 15.4 12.6 5.3 51 4.8 WNW 9 17 5 9 1016.6 1016.6 0.0
29/01:30pm 15.4 12.3 5.6 52 4.7 N 11 24 6 13 1017.3 1017.3 0.0
29/01:00pm 14.8 11.4 4.2 49 4.9 NW 11 20 6 11 1018.2 1018.3 0.0
29/12:30pm 14.2 10.9 4.8 53 4.4 NNW 11 19 6 10 1018.7 1018.8 0.0
29/12:00pm 14.0 11.3 5.4 56 4.1 NNW 9 20 5 11 1019.0 1019.1 0.0
29/11:30am 13.2 10.3 4.6 56 4.0 NW 9 19 5 10 1019.6 1019.7 0.0
29/11:00am 12.6 10.0 4.3 57 3.8 NNW 7 15 4 8 1020.0 1020.1 0.0
29/10:30am 12.0 9.5 4.5 60 3.4 N 7 13 4 7 1020.8 1020.8 0.0
29/10:00am 11.2 7.8 4.2 62 3.2 NNW 11 17 6 9 1021.3 1021.3 0.0
29/09:30am 10.5 7.4 3.5 62 3.1 N 9 15 5 8 1021.4 1021.4 0.0
29/09:00am 9.3 5.4 3.5 67 2.5 NNW 13 20 7 11 1021.9 1021.9 0.0
29/08:30am 7.1 5.6 6.7 97 0.2 ESE 4 7 2 4 1022.2 1022.2 0.0
29/08:00am 3.0 1.1 2.7 98 0.1 SE 2 4 1 2 1022.5 1022.5 0.0
29/07:30am 0.6 -1.4 0.2 97 0.1 CALM 0 0 0 0 1022.4 1022.4 0.0
29/07:00am -0.4 -2.5 -0.8 97 0.1 CALM 0 0 0 0 1022.5 1022.5 0.0
29/06:30am -0.9 -3.1 -1.3 97 0.1 CALM 0 0 0 0 1022.3 1022.3 0.0
29/06:00am -1.3 -3.5 -1.7 97 0.1 CALM 0 0 0 0 1022.2 1022.2 0.0
29/05:30am -1.1 -3.3 -1.5 97 0.1 CALM 0 0 0 0 1022.1 1022.1 0.0
29/05:00am -1.0 -3.2 -1.4 97 0.1 CALM 0 0 0 0 1022.2 1022.2 0.0
29/04:30am -0.8 -3.0 -1.2 97 0.1 CALM 0 0 0 0 1022.3 1022.3 0.0
29/04:00am -0.7 -2.9 -1.3 96 0.2 CALM 0 0 0 0 1022.0 1022.0 0.0
29/03:30am -0.5 -2.6 -1.1 96 0.2 CALM 0 0 0 0 1022.1 1022.1 0.0
29/03:00am -0.1 -2.2 -0.7 96 0.2 CALM 0 0 0 0 1022.4 1022.4 0.0
29/02:30am -0.1 -2.2 -0.7 96 0.2 CALM 0 0 0 0 1022.3 1022.3 0.0
29/02:00am 0.0 -2.1 -0.6 96 0.2 CALM 0 0 0 0 1022.2 1022.2 0.0
29/01:30am 0.3 -1.7 -0.4 95 0.3 CALM 0 0 0 0 1023.0 1023.1 0.0
29/01:00am 0.6 -1.4 -0.1 95 0.3 CALM 0 0 0 0 1023.5 1023.6 0.0
29/12:30am 1.2 -0.7 0.5 95 0.3 CALM 0 0 0 0 1023.9 1024.0 0.0
29/12:00am 1.9 0.1 1.2 95 0.3 CALM 0 0 0 0 1024.0 1024.1 0.0
 
Date/Time
WST
Temp
°C
App
Temp
°C
Dew
Point
°C
Rel
Hum
%
Delta-T
°C
Wind Press
QNH
hPa
Press
MSL
hPa
Rain since
9am
mm
Dir  Spd
km/h
Gust
km/h
Spd
kts
Gust
kts
28/11:30pm 2.0 0.2 1.1 94 0.3 CALM 0 0 0 0 1024.1 1024.2 0.0
28/11:00pm 2.6 0.9 1.6 93 0.4 CALM 0 0 0 0 1023.9 1024.0 0.0
28/10:30pm 3.2 1.5 2.0 92 0.5 CALM 0 0 0 0 1024.2 1024.3 0.0
28/10:00pm 3.8 2.2 2.5 91 0.5 CALM 0 0 0 0 1024.3 1024.4 0.0
28/09:30pm 5.1 3.7 3.4 89 0.7 CALM 0 0 0 0 1024.4 1024.5 0.0
28/09:00pm 6.0 4.7 4.2 88 0.8 CALM 0 0 0 0 1024.5 1024.6 0.0
28/08:30pm 7.2 6.1 5.2 87 0.9 CALM 0 4 0 2 1024.5 1024.6 0.0
28/08:00pm 7.1 5.9 4.6 84 1.1 CALM 0 6 0 3 1024.4 1024.5 0.0
28/07:30pm 7.7 6.4 4.1 78 1.6 CALM 0 0 0 0 1024.0 1024.1 0.0
28/07:00pm 8.6 6.5 4.0 73 2.0 S 4 7 2 4 1023.7 1023.8 0.0
28/06:30pm 8.8 6.2 3.4 69 2.3 S 6 9 3 5 1023.6 1023.7 0.0

Other Formats:

Comma delimited format used in spreadsheet applications
http://www.bom.gov.au/fwo/IDW60801/IDW60801.95632.axf

JavaScript Object Notation format (JSON) in row-major order
http://www.bom.gov.au/fwo/IDW60801/IDW60801.95632.json